sensor_id;sensor_type;location;lat;lon;timestamp;P1;durP1;ratioP1;P2;durP2;ratioP2
10399;SDS011;10031;51.180;17.168;2023-02-15T00:01:34;67.30;;;32.93;;
10399;SDS011;10031;51.180;17.168;2023-02-15T00:04:00;65.87;;;31.70;;
10399;SDS011;10031;51.180;17.168;2023-02-15T00:06:27;67.10;;;31.30;;
10399;SDS011;10031;51.180;17.168;2023-02-15T00:08:53;70.20;;;34.13;;
10399;SDS011;10031;51.180;17.168;2023-02-15T00:11:19;69.17;;;35.00;;
10399;SDS011;10031;51.180;17.168;2023-02-15T00:14:08;75.03;;;34.33;;
10399;SDS011;10031;51.180;17.168;2023-02-15T00:16:39;73.37;;;34.83;;
10399;SDS011;10031;51.180;17.168;2023-02-15T00:19:06;64.80;;;31.30;;
10399;SDS011;10031;51.180;17.168;2023-02-15T00:21:32;68.40;;;32.50;;
10399;SDS011;10031;51.180;17.168;2023-02-15T00:23:59;64.57;;;32.27;;
10399;SDS011;10031;51.180;17.168;2023-02-15T00:26:26;71.00;;;32.80;;
10399;SDS011;10031;51.180;17.168;2023-02-15T00:28:52;69.33;;;32.20;;
10399;SDS011;10031;51.180;17.168;2023-02-15T00:31:19;63.63;;;30.47;;
10399;SDS011;10031;51.180;17.168;2023-02-15T00:33:45;62.83;;;30.47;;
10399;SDS011;10031;51.180;17.168;2023-02-15T00:36:11;68.60;;;33.83;;
10399;SDS011;10031;51.180;17.168;2023-02-15T00:38:37;70.70;;;32.43;;
10399;SDS011;10031;51.180;17.168;2023-02-15T00:41:04;66.30;;;30.27;;
10399;SDS011;10031;51.180;17.168;2023-02-15T00:43:31;63.40;;;32.37;;
10399;SDS011;10031;51.180;17.168;2023-02-15T00:45:58;67.97;;;31.23;;
10399;SDS011;10031;51.180;17.168;2023-02-15T00:48:24;74.93;;;33.67;;
10399;SDS011;10031;51.180;17.168;2023-02-15T00:50:52;78.10;;;33.73;;
10399;SDS011;10031;51.180;17.168;2023-02-15T00:53:19;81.57;;;34.97;;
10399;SDS011;10031;51.180;17.168;2023-02-15T00:55:45;70.93;;;34.73;;
10399;SDS011;10031;51.180;17.168;2023-02-15T00:58:11;71.93;;;33.93;;
10399;SDS011;10031;51.180;17.168;2023-02-15T01:00:38;67.27;;;30.90;;
10399;SDS011;10031;51.180;17.168;2023-02-15T01:03:04;74.30;;;32.87;;
10399;SDS011;10031;51.180;17.168;2023-02-15T01:05:30;66.30;;;29.80;;
10399;SDS011;10031;51.180;17.168;2023-02-15T01:07:57;66.57;;;31.47;;
10399;SDS011;10031;51.180;17.168;2023-02-15T01:10:23;61.53;;;30.03;;
10399;SDS011;10031;51.180;17.168;2023-02-15T01:12:50;65.60;;;29.00;;
10399;SDS011;10031;51.180;17.168;2023-02-15T01:15:16;63.83;;;30.47;;
10399;SDS011;10031;51.180;17.168;2023-02-15T01:17:42;64.20;;;30.60;;
10399;SDS011;10031;51.180;17.168;2023-02-15T01:20:10;63.33;;;30.07;;
10399;SDS011;10031;51.180;17.168;2023-02-15T01:22:36;59.83;;;29.87;;
10399;SDS011;10031;51.180;17.168;2023-02-15T01:25:02;60.87;;;28.77;;
10399;SDS011;10031;51.180;17.168;2023-02-15T01:27:28;62.23;;;28.57;;
10399;SDS011;10031;51.180;17.168;2023-02-15T01:30:00;65.57;;;30.57;;
10399;SDS011;10031;51.180;17.168;2023-02-15T01:32:26;62.03;;;30.17;;
10399;SDS011;10031;51.180;17.168;2023-02-15T01:34:52;60.83;;;28.40;;
10399;SDS011;10031;51.180;17.168;2023-02-15T01:37:18;65.57;;;30.53;;
10399;SDS011;10031;51.180;17.168;2023-02-15T01:39:44;64.20;;;29.30;;
10399;SDS011;10031;51.180;17.168;2023-02-15T01:42:11;61.73;;;27.87;;
10399;SDS011;10031;51.180;17.168;2023-02-15T01:44:45;57.17;;;27.47;;
10399;SDS011;10031;51.180;17.168;2023-02-15T01:47:16;55.87;;;26.70;;
10399;SDS011;10031;51.180;17.168;2023-02-15T01:49:48;51.80;;;26.03;;
10399;SDS011;10031;51.180;17.168;2023-02-15T01:52:32;56.77;;;27.70;;
10399;SDS011;10031;51.180;17.168;2023-02-15T01:54:59;64.23;;;27.83;;
10399;SDS011;10031;51.180;17.168;2023-02-15T01:57:27;57.07;;;26.90;;
10399;SDS011;10031;51.180;17.168;2023-02-15T01:59:55;58.23;;;28.40;;
10399;SDS011;10031;51.180;17.168;2023-02-15T02:02:24;55.70;;;27.83;;
10399;SDS011;10031;51.180;17.168;2023-02-15T02:04:51;75.33;;;29.87;;
10399;SDS011;10031;51.180;17.168;2023-02-15T02:07:22;57.97;;;27.20;;
10399;SDS011;10031;51.180;17.168;2023-02-15T02:09:51;57.40;;;28.03;;
10399;SDS011;10031;51.180;17.168;2023-02-15T02:12:18;65.93;;;29.07;;
10399;SDS011;10031;51.180;17.168;2023-02-15T02:14:45;65.63;;;29.10;;
10399;SDS011;10031;51.180;17.168;2023-02-15T02:17:17;57.23;;;29.67;;
10399;SDS011;10031;51.180;17.168;2023-02-15T02:25:32;59.07;;;27.73;;
10399;SDS011;10031;51.180;17.168;2023-02-15T02:33:39;60.83;;;27.60;;
10399;SDS011;10031;51.180;17.168;2023-02-15T02:36:20;61.83;;;28.50;;
10399;SDS011;10031;51.180;17.168;2023-02-15T02:38:52;69.70;;;30.33;;
10399;SDS011;10031;51.180;17.168;2023-02-15T02:41:35;81.13;;;28.63;;
10399;SDS011;10031;51.180;17.168;2023-02-15T02:44:10;53.40;;;25.17;;
10399;SDS011;10031;51.180;17.168;2023-02-15T02:49:32;57.17;;;25.90;;
10399;SDS011;10031;51.180;17.168;2023-02-15T02:52:03;55.77;;;24.20;;
10399;SDS011;10031;51.180;17.168;2023-02-15T02:54:30;50.40;;;24.70;;
10399;SDS011;10031;51.180;17.168;2023-02-15T02:56:58;60.73;;;28.20;;
10399;SDS011;10031;51.180;17.168;2023-02-15T02:59:37;61.13;;;25.80;;
10399;SDS011;10031;51.180;17.168;2023-02-15T03:02:25;61.07;;;26.93;;
10399;SDS011;10031;51.180;17.168;2023-02-15T03:04:57;63.50;;;27.90;;
10399;SDS011;10031;51.180;17.168;2023-02-15T03:07:28;61.30;;;27.77;;
10399;SDS011;10031;51.180;17.168;2023-02-15T03:09:57;54.77;;;27.40;;
10399;SDS011;10031;51.180;17.168;2023-02-15T03:12:28;59.07;;;28.47;;
10399;SDS011;10031;51.180;17.168;2023-02-15T03:14:59;59.80;;;27.63;;
10399;SDS011;10031;51.180;17.168;2023-02-15T03:17:36;57.03;;;27.57;;
10399;SDS011;10031;51.180;17.168;2023-02-15T03:20:09;67.87;;;29.50;;
10399;SDS011;10031;51.180;17.168;2023-02-15T03:22:40;61.80;;;28.63;;
10399;SDS011;10031;51.180;17.168;2023-02-15T03:27:43;63.83;;;28.83;;
10399;SDS011;10031;51.180;17.168;2023-02-15T03:30:12;58.67;;;28.17;;
10399;SDS011;10031;51.180;17.168;2023-02-15T03:32:39;66.50;;;28.53;;
10399;SDS011;10031;51.180;17.168;2023-02-15T03:35:08;59.73;;;28.33;;
10399;SDS011;10031;51.180;17.168;2023-02-15T03:42:50;56.90;;;26.83;;
10399;SDS011;10031;51.180;17.168;2023-02-15T03:45:24;60.00;;;25.80;;
10399;SDS011;10031;51.180;17.168;2023-02-15T03:47:53;55.83;;;25.80;;
10399;SDS011;10031;51.180;17.168;2023-02-15T03:50:22;49.33;;;25.13;;
10399;SDS011;10031;51.180;17.168;2023-02-15T03:53:11;53.47;;;25.90;;
10399;SDS011;10031;51.180;17.168;2023-02-15T03:55:39;54.60;;;25.40;;
10399;SDS011;10031;51.180;17.168;2023-02-15T03:58:05;54.17;;;25.03;;
10399;SDS011;10031;51.180;17.168;2023-02-15T04:01:33;52.97;;;23.53;;
10399;SDS011;10031;51.180;17.168;2023-02-15T04:04:08;47.43;;;22.97;;
10399;SDS011;10031;51.180;17.168;2023-02-15T04:06:43;54.40;;;22.80;;
10399;SDS011;10031;51.180;17.168;2023-02-15T04:09:09;53.03;;;26.07;;
10399;SDS011;10031;51.180;17.168;2023-02-15T04:11:53;62.40;;;25.70;;
10399;SDS011;10031;51.180;17.168;2023-02-15T04:14:22;59.93;;;26.17;;
10399;SDS011;10031;51.180;17.168;2023-02-15T04:17:07;60.13;;;27.23;;
10399;SDS011;10031;51.180;17.168;2023-02-15T04:19:34;66.53;;;27.83;;
10399;SDS011;10031;51.180;17.168;2023-02-15T04:22:18;55.23;;;26.97;;
10399;SDS011;10031;51.180;17.168;2023-02-15T04:25:03;64.57;;;27.50;;
10399;SDS011;10031;51.180;17.168;2023-02-15T04:27:39;68.67;;;30.43;;
10399;SDS011;10031;51.180;17.168;2023-02-15T04:30:06;79.13;;;32.23;;
10399;SDS011;10031;51.180;17.168;2023-02-15T04:32:33;64.93;;;29.43;;
10399;SDS011;10031;51.180;17.168;2023-02-15T04:34:59;79.77;;;33.67;;
10399;SDS011;10031;51.180;17.168;2023-02-15T04:37:26;74.50;;;30.30;;
10399;SDS011;10031;51.180;17.168;2023-02-15T04:39:52;78.27;;;32.20;;
10399;SDS011;10031;51.180;17.168;2023-02-15T04:42:18;73.47;;;30.33;;
10399;SDS011;10031;51.180;17.168;2023-02-15T04:44:44;63.40;;;28.50;;
10399;SDS011;10031;51.180;17.168;2023-02-15T04:47:10;66.00;;;30.43;;
10399;SDS011;10031;51.180;17.168;2023-02-15T04:49:36;63.63;;;27.60;;
10399;SDS011;10031;51.180;17.168;2023-02-15T04:52:02;61.83;;;26.87;;
10399;SDS011;10031;51.180;17.168;2023-02-15T04:54:28;64.07;;;26.77;;
10399;SDS011;10031;51.180;17.168;2023-02-15T04:56:54;57.90;;;25.93;;
10399;SDS011;10031;51.180;17.168;2023-02-15T04:59:20;61.20;;;26.50;;
10399;SDS011;10031;51.180;17.168;2023-02-15T05:01:46;55.33;;;25.67;;
10399;SDS011;10031;51.180;17.168;2023-02-15T05:04:12;53.23;;;25.27;;
10399;SDS011;10031;51.180;17.168;2023-02-15T05:06:38;48.53;;;25.13;;
10399;SDS011;10031;51.180;17.168;2023-02-15T05:09:04;61.40;;;25.93;;
10399;SDS011;10031;51.180;17.168;2023-02-15T05:11:30;54.97;;;25.20;;
10399;SDS011;10031;51.180;17.168;2023-02-15T05:13:56;55.17;;;25.73;;
10399;SDS011;10031;51.180;17.168;2023-02-15T05:16:22;53.00;;;25.30;;
10399;SDS011;10031;51.180;17.168;2023-02-15T05:18:48;54.57;;;24.20;;
10399;SDS011;10031;51.180;17.168;2023-02-15T05:21:14;51.37;;;24.17;;
10399;SDS011;10031;51.180;17.168;2023-02-15T05:23:41;52.37;;;23.67;;
10399;SDS011;10031;51.180;17.168;2023-02-15T05:26:10;53.50;;;23.50;;
10399;SDS011;10031;51.180;17.168;2023-02-15T05:28:55;55.53;;;24.73;;
10399;SDS011;10031;51.180;17.168;2023-02-15T05:31:21;48.03;;;22.87;;
10399;SDS011;10031;51.180;17.168;2023-02-15T05:33:47;57.07;;;24.90;;
10399;SDS011;10031;51.180;17.168;2023-02-15T05:36:13;55.20;;;23.90;;
10399;SDS011;10031;51.180;17.168;2023-02-15T05:38:40;55.03;;;24.07;;
10399;SDS011;10031;51.180;17.168;2023-02-15T05:41:06;51.43;;;23.33;;
10399;SDS011;10031;51.180;17.168;2023-02-15T05:43:33;57.93;;;25.93;;
10399;SDS011;10031;51.180;17.168;2023-02-15T05:45:59;53.50;;;24.13;;
10399;SDS011;10031;51.180;17.168;2023-02-15T05:48:25;60.47;;;27.03;;
10399;SDS011;10031;51.180;17.168;2023-02-15T05:51:25;58.90;;;26.47;;
10399;SDS011;10031;51.180;17.168;2023-02-15T05:53:44;53.83;;;23.67;;
10399;SDS011;10031;51.180;17.168;2023-02-15T05:56:10;60.60;;;24.37;;
10399;SDS011;10031;51.180;17.168;2023-02-15T05:58:40;48.30;;;24.03;;
10399;SDS011;10031;51.180;17.168;2023-02-15T06:01:07;56.20;;;24.90;;
10399;SDS011;10031;51.180;17.168;2023-02-15T06:03:38;54.63;;;24.90;;
10399;SDS011;10031;51.180;17.168;2023-02-15T06:06:04;55.43;;;23.47;;
10399;SDS011;10031;51.180;17.168;2023-02-15T06:08:31;52.43;;;24.10;;
10399;SDS011;10031;51.180;17.168;2023-02-15T06:10:57;57.83;;;25.80;;
10399;SDS011;10031;51.180;17.168;2023-02-15T06:13:23;62.10;;;26.40;;
10399;SDS011;10031;51.180;17.168;2023-02-15T06:15:49;53.73;;;25.70;;
10399;SDS011;10031;51.180;17.168;2023-02-15T06:18:16;58.07;;;25.77;;
10399;SDS011;10031;51.180;17.168;2023-02-15T06:20:42;59.43;;;25.90;;
10399;SDS011;10031;51.180;17.168;2023-02-15T06:23:13;56.50;;;26.73;;
10399;SDS011;10031;51.180;17.168;2023-02-15T06:25:39;57.50;;;25.63;;
10399;SDS011;10031;51.180;17.168;2023-02-15T06:28:05;59.77;;;25.30;;
10399;SDS011;10031;51.180;17.168;2023-02-15T06:30:31;66.83;;;27.57;;
10399;SDS011;10031;51.180;17.168;2023-02-15T06:32:57;60.17;;;26.97;;
10399;SDS011;10031;51.180;17.168;2023-02-15T06:35:23;61.77;;;27.13;;
10399;SDS011;10031;51.180;17.168;2023-02-15T06:37:49;64.43;;;27.03;;
10399;SDS011;10031;51.180;17.168;2023-02-15T06:40:15;68.20;;;29.80;;
10399;SDS011;10031;51.180;17.168;2023-02-15T06:42:42;65.30;;;29.23;;
10399;SDS011;10031;51.180;17.168;2023-02-15T06:45:08;67.63;;;29.63;;
10399;SDS011;10031;51.180;17.168;2023-02-15T06:47:35;69.73;;;28.57;;
10399;SDS011;10031;51.180;17.168;2023-02-15T06:50:01;87.20;;;32.43;;
10399;SDS011;10031;51.180;17.168;2023-02-15T06:52:27;87.67;;;33.63;;
10399;SDS011;10031;51.180;17.168;2023-02-15T06:54:54;105.13;;;36.50;;
10399;SDS011;10031;51.180;17.168;2023-02-15T06:57:20;103.03;;;39.93;;
10399;SDS011;10031;51.180;17.168;2023-02-15T06:59:46;97.03;;;39.27;;
10399;SDS011;10031;51.180;17.168;2023-02-15T07:02:12;91.33;;;38.93;;
10399;SDS011;10031;51.180;17.168;2023-02-15T07:04:38;81.33;;;37.90;;
10399;SDS011;10031;51.180;17.168;2023-02-15T07:07:09;68.30;;;33.90;;
10399;SDS011;10031;51.180;17.168;2023-02-15T07:09:36;64.07;;;31.37;;
10399;SDS011;10031;51.180;17.168;2023-02-15T07:12:02;64.50;;;31.00;;
10399;SDS011;10031;51.180;17.168;2023-02-15T07:14:47;60.97;;;29.90;;
10399;SDS011;10031;51.180;17.168;2023-02-15T07:17:13;58.90;;;28.73;;
10399;SDS011;10031;51.180;17.168;2023-02-15T07:19:39;60.50;;;31.80;;
10399;SDS011;10031;51.180;17.168;2023-02-15T07:22:05;64.97;;;31.90;;
10399;SDS011;10031;51.180;17.168;2023-02-15T07:24:31;68.77;;;33.53;;
10399;SDS011;10031;51.180;17.168;2023-02-15T07:26:57;66.80;;;33.50;;
10399;SDS011;10031;51.180;17.168;2023-02-15T07:29:23;69.40;;;34.23;;
10399;SDS011;10031;51.180;17.168;2023-02-15T07:31:50;69.40;;;35.43;;
10399;SDS011;10031;51.180;17.168;2023-02-15T07:34:16;77.50;;;37.80;;
10399;SDS011;10031;51.180;17.168;2023-02-15T07:36:42;86.67;;;38.10;;
10399;SDS011;10031;51.180;17.168;2023-02-15T07:39:09;83.83;;;39.43;;
10399;SDS011;10031;51.180;17.168;2023-02-15T07:41:35;92.27;;;41.80;;
10399;SDS011;10031;51.180;17.168;2023-02-15T07:44:01;89.20;;;39.07;;
10399;SDS011;10031;51.180;17.168;2023-02-15T07:46:27;70.23;;;33.53;;
10399;SDS011;10031;51.180;17.168;2023-02-15T07:48:55;69.50;;;32.33;;
10399;SDS011;10031;51.180;17.168;2023-02-15T07:51:21;82.60;;;34.97;;
10399;SDS011;10031;51.180;17.168;2023-02-15T07:53:47;79.97;;;35.20;;
10399;SDS011;10031;51.180;17.168;2023-02-15T07:56:13;82.17;;;39.40;;
10399;SDS011;10031;51.180;17.168;2023-02-15T07:58:39;84.23;;;37.70;;
10399;SDS011;10031;51.180;17.168;2023-02-15T08:01:18;84.13;;;38.53;;
10399;SDS011;10031;51.180;17.168;2023-02-15T08:03:47;75.80;;;36.53;;
10399;SDS011;10031;51.180;17.168;2023-02-15T08:06:13;80.27;;;38.10;;
10399;SDS011;10031;51.180;17.168;2023-02-15T08:08:40;91.07;;;40.07;;
10399;SDS011;10031;51.180;17.168;2023-02-15T08:14:00;75.07;;;33.87;;
10399;SDS011;10031;51.180;17.168;2023-02-15T08:19:30;73.60;;;34.17;;
10399;SDS011;10031;51.180;17.168;2023-02-15T08:24:24;70.13;;;32.63;;
10399;SDS011;10031;51.180;17.168;2023-02-15T08:26:52;81.70;;;34.70;;
10399;SDS011;10031;51.180;17.168;2023-02-15T08:29:20;81.03;;;36.80;;
10399;SDS011;10031;51.180;17.168;2023-02-15T08:31:48;78.63;;;36.23;;
10399;SDS011;10031;51.180;17.168;2023-02-15T08:34:16;80.97;;;35.70;;
10399;SDS011;10031;51.180;17.168;2023-02-15T08:36:43;71.73;;;33.17;;
10399;SDS011;10031;51.180;17.168;2023-02-15T08:39:13;74.03;;;33.30;;
10399;SDS011;10031;51.180;17.168;2023-02-15T08:41:41;71.60;;;32.90;;
10399;SDS011;10031;51.180;17.168;2023-02-15T08:44:08;66.57;;;33.43;;
10399;SDS011;10031;51.180;17.168;2023-02-15T08:46:36;65.17;;;32.67;;
10399;SDS011;10031;51.180;17.168;2023-02-15T08:49:04;71.27;;;33.33;;
10399;SDS011;10031;51.180;17.168;2023-02-15T08:51:32;58.33;;;31.93;;
10399;SDS011;10031;51.180;17.168;2023-02-15T08:54:01;55.40;;;29.50;;
10399;SDS011;10031;51.180;17.168;2023-02-15T08:56:30;62.23;;;30.00;;
10399;SDS011;10031;51.180;17.168;2023-02-15T08:59:00;58.10;;;28.23;;
10399;SDS011;10031;51.180;17.168;2023-02-15T09:01:27;54.47;;;29.03;;
10399;SDS011;10031;51.180;17.168;2023-02-15T09:03:55;53.77;;;28.40;;
10399;SDS011;10031;51.180;17.168;2023-02-15T09:06:22;57.10;;;30.93;;
10399;SDS011;10031;51.180;17.168;2023-02-15T09:08:55;50.77;;;25.60;;
10399;SDS011;10031;51.180;17.168;2023-02-15T09:11:33;48.47;;;25.57;;
10399;SDS011;10031;51.180;17.168;2023-02-15T09:14:10;52.23;;;27.23;;
10399;SDS011;10031;51.180;17.168;2023-02-15T09:16:42;49.50;;;26.27;;
10399;SDS011;10031;51.180;17.168;2023-02-15T09:19:16;51.07;;;27.20;;
10399;SDS011;10031;51.180;17.168;2023-02-15T09:21:43;52.10;;;26.87;;
10399;SDS011;10031;51.180;17.168;2023-02-15T09:24:10;45.47;;;25.77;;
10399;SDS011;10031;51.180;17.168;2023-02-15T09:26:38;50.97;;;25.27;;
10399;SDS011;10031;51.180;17.168;2023-02-15T09:29:09;43.17;;;22.83;;
10399;SDS011;10031;51.180;17.168;2023-02-15T09:31:38;42.37;;;22.67;;
10399;SDS011;10031;51.180;17.168;2023-02-15T09:34:06;41.70;;;20.93;;
10399;SDS011;10031;51.180;17.168;2023-02-15T09:36:33;45.07;;;23.83;;
10399;SDS011;10031;51.180;17.168;2023-02-15T09:47:05;53.37;;;25.33;;
10399;SDS011;10031;51.180;17.168;2023-02-15T10:11:25;47.63;;;25.73;;
10399;SDS011;10031;51.180;17.168;2023-02-15T10:16:42;39.47;;;21.97;;
10399;SDS011;10031;51.180;17.168;2023-02-15T10:19:37;39.57;;;20.93;;
10399;SDS011;10031;51.180;17.168;2023-02-15T10:22:16;41.40;;;23.30;;
10399;SDS011;10031;51.180;17.168;2023-02-15T10:27:20;38.63;;;22.83;;
10399;SDS011;10031;51.180;17.168;2023-02-15T10:30:09;41.60;;;22.80;;
10399;SDS011;10031;51.180;17.168;2023-02-15T10:32:39;42.43;;;23.77;;
10399;SDS011;10031;51.180;17.168;2023-02-15T10:35:12;43.53;;;24.93;;
10399;SDS011;10031;51.180;17.168;2023-02-15T10:37:43;43.97;;;24.20;;
10399;SDS011;10031;51.180;17.168;2023-02-15T10:40:25;48.13;;;24.67;;
10399;SDS011;10031;51.180;17.168;2023-02-15T10:45:27;43.83;;;26.53;;
10399;SDS011;10031;51.180;17.168;2023-02-15T11:01:58;40.70;;;21.13;;
10399;SDS011;10031;51.180;17.168;2023-02-15T11:04:52;43.60;;;22.67;;
10399;SDS011;10031;51.180;17.168;2023-02-15T11:07:28;43.73;;;22.27;;
10399;SDS011;10031;51.180;17.168;2023-02-15T11:13:01;43.30;;;25.07;;
10399;SDS011;10031;51.180;17.168;2023-02-15T11:23:17;50.43;;;26.83;;
10399;SDS011;10031;51.180;17.168;2023-02-15T11:25:45;51.23;;;28.83;;
10399;SDS011;10031;51.180;17.168;2023-02-15T11:28:18;51.87;;;28.40;;
10399;SDS011;10031;51.180;17.168;2023-02-15T11:30:54;47.37;;;26.77;;
10399;SDS011;10031;51.180;17.168;2023-02-15T11:33:31;50.97;;;25.27;;
10399;SDS011;10031;51.180;17.168;2023-02-15T11:38:37;46.47;;;26.03;;
10399;SDS011;10031;51.180;17.168;2023-02-15T11:43:44;43.70;;;24.23;;
10399;SDS011;10031;51.180;17.168;2023-02-15T11:46:21;48.90;;;26.63;;
10399;SDS011;10031;51.180;17.168;2023-02-15T11:48:47;47.03;;;24.87;;
10399;SDS011;10031;51.180;17.168;2023-02-15T11:51:14;45.47;;;24.47;;
10399;SDS011;10031;51.180;17.168;2023-02-15T11:53:43;43.53;;;23.87;;
10399;SDS011;10031;51.180;17.168;2023-02-15T11:56:14;46.00;;;25.23;;
10399;SDS011;10031;51.180;17.168;2023-02-15T11:58:59;47.63;;;24.83;;
10399;SDS011;10031;51.180;17.168;2023-02-15T12:01:39;48.73;;;25.17;;
10399;SDS011;10031;51.180;17.168;2023-02-15T12:06:41;46.47;;;24.07;;
10399;SDS011;10031;51.180;17.168;2023-02-15T12:14:52;48.43;;;27.10;;
10399;SDS011;10031;51.180;17.168;2023-02-15T12:17:23;46.27;;;23.70;;
10399;SDS011;10031;51.180;17.168;2023-02-15T12:20:01;47.10;;;24.57;;
10399;SDS011;10031;51.180;17.168;2023-02-15T12:22:32;48.73;;;25.87;;
10399;SDS011;10031;51.180;17.168;2023-02-15T12:25:19;50.50;;;26.57;;
10399;SDS011;10031;51.180;17.168;2023-02-15T12:27:46;51.70;;;27.90;;
10399;SDS011;10031;51.180;17.168;2023-02-15T12:33:03;50.93;;;26.90;;
10399;SDS011;10031;51.180;17.168;2023-02-15T12:35:32;47.17;;;25.63;;
10399;SDS011;10031;51.180;17.168;2023-02-15T12:38:05;47.73;;;27.13;;
10399;SDS011;10031;51.180;17.168;2023-02-15T12:41:02;47.97;;;26.23;;
10399;SDS011;10031;51.180;17.168;2023-02-15T12:43:34;51.93;;;26.37;;
10399;SDS011;10031;51.180;17.168;2023-02-15T12:48:58;56.07;;;27.93;;
10399;SDS011;10031;51.180;17.168;2023-02-15T12:51:52;53.67;;;28.97;;
10399;SDS011;10031;51.180;17.168;2023-02-15T12:56:52;49.53;;;26.53;;
10399;SDS011;10031;51.180;17.168;2023-02-15T12:59:21;46.13;;;25.87;;
10399;SDS011;10031;51.180;17.168;2023-02-15T13:01:47;50.47;;;28.30;;
10399;SDS011;10031;51.180;17.168;2023-02-15T13:04:26;50.30;;;27.27;;
10399;SDS011;10031;51.180;17.168;2023-02-15T13:07:01;52.60;;;27.70;;
10399;SDS011;10031;51.180;17.168;2023-02-15T13:11:57;48.27;;;26.03;;
10399;SDS011;10031;51.180;17.168;2023-02-15T13:14:57;45.10;;;25.30;;
10399;SDS011;10031;51.180;17.168;2023-02-15T13:17:25;45.37;;;24.80;;
10399;SDS011;10031;51.180;17.168;2023-02-15T13:19:57;47.43;;;25.37;;
10399;SDS011;10031;51.180;17.168;2023-02-15T13:22:48;45.63;;;26.50;;
10399;SDS011;10031;51.180;17.168;2023-02-15T13:27:43;48.03;;;24.93;;
10399;SDS011;10031;51.180;17.168;2023-02-15T13:32:51;52.00;;;27.13;;
10399;SDS011;10031;51.180;17.168;2023-02-15T13:35:21;46.63;;;25.20;;
10399;SDS011;10031;51.180;17.168;2023-02-15T13:43:05;49.50;;;27.17;;
10399;SDS011;10031;51.180;17.168;2023-02-15T13:51:13;45.00;;;24.73;;
10399;SDS011;10031;51.180;17.168;2023-02-15T13:53:46;41.80;;;23.97;;
10399;SDS011;10031;51.180;17.168;2023-02-15T13:56:21;44.70;;;23.47;;
10399;SDS011;10031;51.180;17.168;2023-02-15T14:01:30;40.93;;;23.03;;
10399;SDS011;10031;51.180;17.168;2023-02-15T14:06:44;43.23;;;23.17;;
10399;SDS011;10031;51.180;17.168;2023-02-15T14:09:37;43.17;;;23.00;;
10399;SDS011;10031;51.180;17.168;2023-02-15T14:12:42;40.00;;;22.47;;
10399;SDS011;10031;51.180;17.168;2023-02-15T14:18:25;40.57;;;22.63;;
10399;SDS011;10031;51.180;17.168;2023-02-15T14:21:15;40.87;;;23.00;;
10399;SDS011;10031;51.180;17.168;2023-02-15T14:31:27;44.67;;;24.50;;
10399;SDS011;10031;51.180;17.168;2023-02-15T14:34:04;41.67;;;22.13;;
10399;SDS011;10031;51.180;17.168;2023-02-15T14:36:31;41.67;;;23.30;;
10399;SDS011;10031;51.180;17.168;2023-02-15T14:42:07;42.90;;;23.00;;
10399;SDS011;10031;51.180;17.168;2023-02-15T14:45:00;43.03;;;23.70;;
10399;SDS011;10031;51.180;17.168;2023-02-15T14:47:33;44.80;;;24.50;;
10399;SDS011;10031;51.180;17.168;2023-02-15T14:50:32;42.00;;;23.73;;
10399;SDS011;10031;51.180;17.168;2023-02-15T14:56:05;40.30;;;22.43;;
10399;SDS011;10031;51.180;17.168;2023-02-15T14:58:33;39.97;;;22.43;;
10399;SDS011;10031;51.180;17.168;2023-02-15T15:01:05;41.40;;;23.73;;
10399;SDS011;10031;51.180;17.168;2023-02-15T15:03:34;46.03;;;24.23;;
10399;SDS011;10031;51.180;17.168;2023-02-15T15:06:01;43.10;;;23.37;;
10399;SDS011;10031;51.180;17.168;2023-02-15T15:08:33;41.30;;;22.57;;
10399;SDS011;10031;51.180;17.168;2023-02-15T15:16:30;41.90;;;23.00;;
10399;SDS011;10031;51.180;17.168;2023-02-15T15:18:56;44.07;;;23.00;;
10399;SDS011;10031;51.180;17.168;2023-02-15T15:32:40;48.87;;;23.70;;
10399;SDS011;10031;51.180;17.168;2023-02-15T15:45:32;47.37;;;24.73;;
10399;SDS011;10031;51.180;17.168;2023-02-15T15:50:46;48.10;;;24.10;;
10399;SDS011;10031;51.180;17.168;2023-02-15T15:53:18;44.13;;;23.27;;
10399;SDS011;10031;51.180;17.168;2023-02-15T15:55:47;46.50;;;25.27;;
10399;SDS011;10031;51.180;17.168;2023-02-15T15:58:16;46.10;;;24.67;;
10399;SDS011;10031;51.180;17.168;2023-02-15T16:00:46;50.77;;;25.40;;
10399;SDS011;10031;51.180;17.168;2023-02-15T16:03:16;47.70;;;25.33;;
10399;SDS011;10031;51.180;17.168;2023-02-15T16:05:47;45.47;;;23.47;;
10399;SDS011;10031;51.180;17.168;2023-02-15T16:08:26;53.63;;;25.80;;
10399;SDS011;10031;51.180;17.168;2023-02-15T16:10:53;49.63;;;24.77;;
10399;SDS011;10031;51.180;17.168;2023-02-15T16:13:23;50.47;;;26.27;;
10399;SDS011;10031;51.180;17.168;2023-02-15T16:15:51;46.03;;;24.87;;
10399;SDS011;10031;51.180;17.168;2023-02-15T16:18:20;48.20;;;24.23;;
10399;SDS011;10031;51.180;17.168;2023-02-15T16:20:57;50.93;;;26.07;;
10399;SDS011;10031;51.180;17.168;2023-02-15T16:28:31;46.93;;;24.83;;
10399;SDS011;10031;51.180;17.168;2023-02-15T16:31:07;50.83;;;25.77;;
10399;SDS011;10031;51.180;17.168;2023-02-15T16:33:40;50.67;;;25.30;;
10399;SDS011;10031;51.180;17.168;2023-02-15T16:36:21;46.17;;;23.83;;
10399;SDS011;10031;51.180;17.168;2023-02-15T16:41:14;50.13;;;23.00;;
10399;SDS011;10031;51.180;17.168;2023-02-15T16:43:42;47.37;;;22.53;;
10399;SDS011;10031;51.180;17.168;2023-02-15T16:46:30;48.17;;;23.33;;
10399;SDS011;10031;51.180;17.168;2023-02-15T16:48:57;51.37;;;24.87;;
10399;SDS011;10031;51.180;17.168;2023-02-15T16:51:25;46.43;;;23.63;;
10399;SDS011;10031;51.180;17.168;2023-02-15T16:53:52;46.13;;;23.00;;
10399;SDS011;10031;51.180;17.168;2023-02-15T16:56:26;45.60;;;23.90;;
10399;SDS011;10031;51.180;17.168;2023-02-15T16:58:53;43.10;;;21.73;;
10399;SDS011;10031;51.180;17.168;2023-02-15T17:01:23;49.40;;;21.37;;
10399;SDS011;10031;51.180;17.168;2023-02-15T17:03:50;43.37;;;22.13;;
10399;SDS011;10031;51.180;17.168;2023-02-15T17:08:45;44.97;;;22.50;;
10399;SDS011;10031;51.180;17.168;2023-02-15T17:11:19;51.63;;;24.37;;
10399;SDS011;10031;51.180;17.168;2023-02-15T17:19:01;68.60;;;32.17;;
10399;SDS011;10031;51.180;17.168;2023-02-15T17:21:30;65.23;;;30.90;;
10399;SDS011;10031;51.180;17.168;2023-02-15T17:24:02;59.33;;;28.57;;
10399;SDS011;10031;51.180;17.168;2023-02-15T17:26:32;59.53;;;28.50;;
10399;SDS011;10031;51.180;17.168;2023-02-15T17:29:00;65.90;;;32.90;;
10399;SDS011;10031;51.180;17.168;2023-02-15T17:31:31;66.00;;;30.60;;
10399;SDS011;10031;51.180;17.168;2023-02-15T17:33:59;70.83;;;33.20;;
10399;SDS011;10031;51.180;17.168;2023-02-15T17:36:26;74.27;;;34.77;;
10399;SDS011;10031;51.180;17.168;2023-02-15T17:43:49;82.43;;;37.70;;
10399;SDS011;10031;51.180;17.168;2023-02-15T17:46:15;67.00;;;30.33;;
10399;SDS011;10031;51.180;17.168;2023-02-15T17:48:45;69.23;;;31.10;;
10399;SDS011;10031;51.180;17.168;2023-02-15T17:51:13;69.00;;;32.87;;
10399;SDS011;10031;51.180;17.168;2023-02-15T17:53:39;69.77;;;32.87;;